createdAt,value
2019-06-15T03:59:55.468Z,23.63
2019-06-15T04:02:25.129Z,23.67
2019-06-15T04:04:55.138Z,23.70
2019-06-15T04:07:24.289Z,23.76
2019-06-15T04:09:53.511Z,23.80
2019-06-15T04:12:22.656Z,23.82
2019-06-15T04:14:51.803Z,23.82
2019-06-15T04:17:20.907Z,23.84
2019-06-15T04:19:50.033Z,23.84
2019-06-15T04:22:19.091Z,23.85
2019-06-15T04:24:48.229Z,23.85
2019-06-15T04:27:17.315Z,23.86
2019-06-15T04:29:46.471Z,23.88
2019-06-15T04:32:15.613Z,23.90
2019-06-15T04:34:44.700Z,23.93
2019-06-15T04:37:13.983Z,23.98
2019-06-15T04:39:43.187Z,23.99
2019-06-15T04:42:12.359Z,24.02
2019-06-15T04:44:41.486Z,24.06
2019-06-15T04:47:10.599Z,24.10
2019-06-15T04:49:39.779Z,24.13
2019-06-15T04:52:08.995Z,24.15
2019-06-15T04:54:38.106Z,24.17
2019-06-15T04:57:07.237Z,24.20
2019-06-15T04:59:36.356Z,24.22
2019-06-15T05:02:05.464Z,24.27
2019-06-15T05:04:34.649Z,24.32
2019-06-15T05:07:03.786Z,24.44
2019-06-15T05:09:32.870Z,24.63
2019-06-15T05:12:01.984Z,24.80
2019-06-15T05:14:31.081Z,24.87
2019-06-15T05:17:00.180Z,24.91
2019-06-15T05:19:29.296Z,24.98
2019-06-15T05:21:58.486Z,25.05
2019-06-15T05:24:27.740Z,25.17
2019-06-15T05:27:05.780Z,25.28
2019-06-15T05:29:27.982Z,25.35
2019-06-15T05:31:57.278Z,25.40
2019-06-15T05:34:26.456Z,25.40
2019-06-15T05:36:55.665Z,25.40
2019-06-15T05:39:24.870Z,25.35
2019-06-15T05:41:53.961Z,25.31
2019-06-15T05:44:23.135Z,25.28
2019-06-15T05:46:52.172Z,25.20
2019-06-15T05:49:21.282Z,25.15
2019-06-15T05:51:50.401Z,25.09
2019-06-15T05:54:19.544Z,25.08
2019-06-15T05:56:48.709Z,25.05
2019-06-15T05:59:17.843Z,25.08
2019-06-15T06:01:47.124Z,25.09
2019-06-15T06:04:16.262Z,25.06
2019-06-15T06:06:45.438Z,25.03
2019-06-15T06:09:14.634Z,24.98
2019-06-15T06:11:43.851Z,24.92
2019-06-15T06:14:12.982Z,24.87
2019-06-15T06:16:42.180Z,24.76
2019-06-15T06:19:11.270Z,24.66
2019-06-15T06:21:40.470Z,24.59
2019-06-15T06:24:09.653Z,24.53
2019-06-15T06:26:38.925Z,24.45
2019-06-15T06:29:08.262Z,24.40
2019-06-15T06:31:37.577Z,24.36
2019-06-15T06:34:06.864Z,24.34
2019-06-15T06:36:36.880Z,24.34
2019-06-15T06:39:07.275Z,24.36
2019-06-15T06:41:36.410Z,24.33
2019-06-15T06:44:05.775Z,24.30
2019-06-15T06:46:34.986Z,24.29
2019-06-15T06:49:04.434Z,24.25
2019-06-15T06:51:33.685Z,24.25
2019-06-15T06:54:02.884Z,24.26
2019-06-15T06:56:32.161Z,24.29
2019-06-15T06:59:01.366Z,24.33
2019-06-15T07:01:30.956Z,24.37
2019-06-15T07:04:00.539Z,24.40
2019-06-15T07:06:29.751Z,24.44
2019-06-15T07:08:59.002Z,24.49
2019-06-15T07:11:28.553Z,24.50
2019-06-15T07:13:57.918Z,24.47
2019-06-15T07:16:27.179Z,24.49
2019-06-15T07:18:56.506Z,24.51
2019-06-15T07:21:34.767Z,24.51
2019-06-15T07:24:04.124Z,24.47
2019-06-15T07:26:34.073Z,24.38
2019-06-15T07:29:03.450Z,24.51
2019-06-15T07:31:32.762Z,24.92
2019-06-15T07:34:02.998Z,25.69
2019-06-15T07:36:32.287Z,26.65
2019-06-15T07:39:01.722Z,27.66
2019-06-15T07:41:31.367Z,28.28
2019-06-15T07:44:00.931Z,28.59
2019-06-15T07:46:32.959Z,28.62
2019-06-15T10:29:41.908Z,32.52
2019-06-15T10:32:05.885Z,32.80
2019-06-15T10:34:38.075Z,32.75
2019-06-15T10:37:07.140Z,33.53
2019-06-15T10:39:39.237Z,35.11
2019-06-15T10:42:08.289Z,36.24
2019-06-15T10:44:42.596Z,36.97
2019-06-15T10:47:11.667Z,38.08
2019-06-15T10:49:40.762Z,39.41
2019-06-15T10:52:09.793Z,40.57
2019-06-15T10:54:38.903Z,41.44
2019-06-15T10:57:07.913Z,42.16
2019-06-15T10:59:39.950Z,42.51
2019-06-15T11:02:09.029Z,42.40
2019-06-15T11:04:38.153Z,42.03
2019-06-15T11:07:07.150Z,41.03
2019-06-15T11:09:42.384Z,40.75
2019-06-15T11:12:23.291Z,40.73
2019-06-15T11:14:52.362Z,41.05
2019-06-15T11:17:21.396Z,41.41
2019-06-15T11:19:50.491Z,41.67
2019-06-15T11:22:19.495Z,41.60
2019-06-15T11:25:09.926Z,41.14
2019-06-15T11:27:38.957Z,40.55
2019-06-15T11:30:13.831Z,39.76
2019-06-15T11:32:38.999Z,39.11
2019-06-15T11:35:08.119Z,38.43
2019-06-15T11:37:37.502Z,37.75
2019-06-15T11:40:08.825Z,37.21
2019-06-15T11:42:37.893Z,36.68
2019-06-15T11:45:07.036Z,36.06
2019-06-15T11:47:36.505Z,35.51
2019-06-15T11:50:05.794Z,35.04
2019-06-15T11:52:34.900Z,34.76
2019-06-15T11:55:04.296Z,34.55
2019-06-15T11:57:33.560Z,34.41
2019-06-15T12:00:02.579Z,34.27
2019-06-15T12:02:31.762Z,34.07
2019-06-15T12:05:03.115Z,34.05
2019-06-15T12:07:34.409Z,34.01
2019-06-15T12:10:03.608Z,33.95
2019-06-15T12:12:33.042Z,33.89
2019-06-15T12:15:06.006Z,33.91
2019-06-15T12:17:35.148Z,33.88
2019-06-15T12:20:04.619Z,33.71
2019-06-15T12:22:36.239Z,33.54
2019-06-15T12:25:06.896Z,33.33
2019-06-15T12:27:38.775Z,33.27
2019-06-15T12:30:08.384Z,33.31
2019-06-15T12:32:37.592Z,33.46
2019-06-15T12:35:06.994Z,33.72
2019-06-15T12:37:38.748Z,33.76
2019-06-15T12:40:08.024Z,33.76
2019-06-15T12:42:40.215Z,33.78
2019-06-15T12:45:09.287Z,33.74
2019-06-15T12:47:38.528Z,33.61
2019-06-15T12:50:07.950Z,33.42
2019-06-15T12:52:37.058Z,33.16
2019-06-15T12:55:06.623Z,33.07
2019-06-15T12:57:38.157Z,32.92
2019-06-15T13:00:07.420Z,32.73
2019-06-15T13:02:36.729Z,32.68
2019-06-15T13:05:06.248Z,32.61
2019-06-15T13:07:35.456Z,32.47
2019-06-15T13:10:04.789Z,32.31
2019-06-15T13:12:36.127Z,32.18
2019-06-15T13:15:05.883Z,32.10
2019-06-15T13:17:35.237Z,32.02
2019-06-15T13:20:04.852Z,31.96
2019-06-15T13:22:35.124Z,31.90
2019-06-15T13:25:04.646Z,31.79
2019-06-15T13:27:33.940Z,31.76
2019-06-15T13:30:03.087Z,31.70
2019-06-15T13:32:33.108Z,31.69
2019-06-15T13:35:05.538Z,31.70
2019-06-15T13:37:42.002Z,31.65
2019-06-15T13:40:05.742Z,31.65
2019-06-15T13:42:34.885Z,31.80
2019-06-15T13:45:04.225Z,31.99
2019-06-15T13:47:34.579Z,32.18
2019-06-15T13:50:03.639Z,32.28
2019-06-15T13:52:32.749Z,32.30
2019-06-15T13:55:01.892Z,32.25
2019-06-15T13:57:31.006Z,32.26
2019-06-15T14:00:00.211Z,32.13
2019-06-15T14:02:29.256Z,32.01
2019-06-15T14:04:58.313Z,31.88
2019-06-15T14:07:27.406Z,31.79
2019-06-15T14:09:56.497Z,31.70
2019-06-15T14:12:25.531Z,31.69
2019-06-15T14:14:54.602Z,31.77
2019-06-15T14:17:23.622Z,31.86
2019-06-15T14:19:52.710Z,31.80
2019-06-15T14:22:21.814Z,31.73
2019-06-15T14:24:50.909Z,31.70
2019-06-15T14:27:19.948Z,31.71
2019-06-15T14:29:48.974Z,31.84
2019-06-15T14:32:18.025Z,31.88
2019-06-15T14:34:47.087Z,31.81
2019-06-15T14:37:16.157Z,31.73
2019-06-15T14:39:45.230Z,31.68
2019-06-15T14:42:14.243Z,31.61
2019-06-15T14:44:43.320Z,31.52
2019-06-15T14:47:12.423Z,31.50
2019-06-15T14:49:41.445Z,31.52
2019-06-15T14:52:10.490Z,31.53
2019-06-15T14:54:42.293Z,31.58
2019-06-15T14:57:11.299Z,31.61
2019-06-15T14:59:52.007Z,31.54
2019-06-15T15:02:14.210Z,31.47
2019-06-15T15:04:41.926Z,31.33
2019-06-15T15:07:11.006Z,31.22
2019-06-15T15:09:40.063Z,31.10
2019-06-15T15:12:09.106Z,30.97
2019-06-15T15:14:38.283Z,30.81
2019-06-15T15:17:07.267Z,30.74
2019-06-15T15:19:36.322Z,30.70
2019-06-15T15:22:05.367Z,30.63
2019-06-15T15:24:34.423Z,30.58
2019-06-15T15:27:03.436Z,30.54
2019-06-15T15:29:32.427Z,30.56
2019-06-15T15:32:01.507Z,30.58
2019-06-15T15:34:30.627Z,30.57
2019-06-15T15:36:59.732Z,30.55
2019-06-15T15:39:28.711Z,30.55
2019-06-15T15:41:57.761Z,30.54
2019-06-15T15:44:27.102Z,30.52
2019-06-15T15:46:57.036Z,30.47
2019-06-15T15:49:26.910Z,30.42
2019-06-15T15:51:56.504Z,30.39
2019-06-15T15:54:25.764Z,30.31
2019-06-15T15:56:55.968Z,30.26
2019-06-15T15:59:25.212Z,30.21
2019-06-15T16:01:56.497Z,30.17
2019-06-15T16:04:26.215Z,30.20
2019-06-15T16:06:56.204Z,30.23
2019-06-15T16:09:27.142Z,30.23
2019-06-15T16:11:56.620Z,30.12
2019-06-15T16:14:26.605Z,30.10
2019-06-15T16:16:56.066Z,30.00
2019-06-15T16:19:26.210Z,29.95
2019-06-15T16:21:56.066Z,29.85
2019-06-15T16:24:27.310Z,29.73
2019-06-15T16:26:56.630Z,29.58
2019-06-15T16:29:25.816Z,29.46
2019-06-15T16:31:56.415Z,29.42
2019-06-15T16:34:27.018Z,29.37
2019-06-15T16:36:57.042Z,29.28
2019-06-15T16:39:26.873Z,29.27
2019-06-15T16:41:56.268Z,29.29
2019-06-15T16:44:25.355Z,29.30
2019-06-15T16:46:56.550Z,29.25
2019-06-15T16:49:26.889Z,29.20
2019-06-15T16:51:56.095Z,29.16
2019-06-15T16:54:27.064Z,29.13
2019-06-15T16:56:55.856Z,29.07
2019-06-15T16:59:24.872Z,29.03
2019-06-15T17:01:56.055Z,28.99
2019-06-15T17:04:26.866Z,28.94
2019-06-15T17:06:56.665Z,28.92
2019-06-15T17:09:27.599Z,28.88
2019-06-15T17:11:57.097Z,28.82
2019-06-15T17:14:27.070Z,28.80
2019-06-15T17:16:56.770Z,28.75
2019-06-15T17:19:26.983Z,28.72
2019-06-15T17:21:58.219Z,28.65
2019-06-15T17:24:27.248Z,28.58
2019-06-15T17:26:57.084Z,28.51
2019-06-15T17:29:26.238Z,28.46
2019-06-15T17:31:57.037Z,28.28
2019-06-15T17:34:26.300Z,28.28
2019-06-15T17:36:57.446Z,28.20
2019-06-15T17:39:29.359Z,28.16
2019-06-15T17:41:56.983Z,28.13
2019-06-15T17:44:26.151Z,28.09
2019-06-15T17:46:56.555Z,28.00
2019-06-15T17:49:27.090Z,28.00
2019-06-15T17:51:56.309Z,28.04
2019-06-15T17:54:27.348Z,28.00
2019-06-15T17:56:56.836Z,27.97
2019-06-15T17:59:26.648Z,27.97
2019-06-15T18:01:55.845Z,27.92
2019-06-15T18:04:24.965Z,27.97
2019-06-15T18:06:56.641Z,27.99
2019-06-15T18:09:25.936Z,28.04
2019-06-15T18:11:57.099Z,28.01
2019-06-15T18:14:26.373Z,28.12
2019-06-15T18:16:58.072Z,28.12
2019-06-15T18:19:26.282Z,28.15
2019-06-15T18:21:56.178Z,28.16
2019-06-15T18:24:26.605Z,28.16
2019-06-15T18:26:56.510Z,28.10
2019-06-15T18:29:26.418Z,28.10
2019-06-15T18:31:56.692Z,28.10
2019-06-15T18:34:25.776Z,28.05
2019-06-15T18:36:56.180Z,28.00
2019-06-15T18:39:26.394Z,27.95
2019-06-15T18:41:56.000Z,27.89
2019-06-15T18:44:26.875Z,27.78
2019-06-15T18:46:56.519Z,27.75
2019-06-15T18:49:26.782Z,27.68
2019-06-15T18:51:56.721Z,27.61
2019-06-15T18:54:26.533Z,27.44
2019-06-15T18:56:56.613Z,27.44
2019-06-15T18:59:26.182Z,27.41
2019-06-15T19:01:56.116Z,27.35
2019-06-15T19:04:30.731Z,27.26
2019-06-15T19:06:56.244Z,27.19
2019-06-15T19:09:26.747Z,27.11
2019-06-15T19:11:56.622Z,27.03
2019-06-15T19:14:27.093Z,26.96
2019-06-15T19:16:56.732Z,26.85
2019-06-15T19:19:26.545Z,26.74
2019-06-15T19:21:57.155Z,26.66
2019-06-15T19:24:26.374Z,26.58
2019-06-15T19:26:58.166Z,26.46
2019-06-15T19:29:26.915Z,26.37
2019-06-15T19:31:57.255Z,26.29
2019-06-15T19:34:41.063Z,26.22
2019-06-15T19:36:57.815Z,26.13
2019-06-15T19:39:27.180Z,26.05
2019-06-15T19:41:56.445Z,25.99
2019-06-15T19:44:26.748Z,25.94
2019-06-15T19:46:56.862Z,25.88
2019-06-15T19:49:27.163Z,25.84
2019-06-15T19:51:56.625Z,25.83
2019-06-15T19:54:26.677Z,25.82
2019-06-15T19:56:57.032Z,25.82
2019-06-15T19:59:26.437Z,25.82
2019-06-15T20:01:55.786Z,25.79
2019-06-15T20:04:26.999Z,25.77
2019-06-15T20:06:56.821Z,25.74
2019-06-15T20:09:26.918Z,25.70
2019-06-15T20:11:56.319Z,25.65
2019-06-15T20:14:25.755Z,25.59
2019-06-15T20:16:56.110Z,25.52
2019-06-15T20:19:26.581Z,25.48
2019-06-15T20:21:57.917Z,25.41
2019-06-15T20:24:27.636Z,25.36
2019-06-15T20:26:58.564Z,25.30
2019-06-15T20:29:27.925Z,25.26
2019-06-15T20:31:57.267Z,25.19
2019-06-15T20:34:26.639Z,25.13
2019-06-15T20:36:55.842Z,25.08
2019-06-15T20:39:26.651Z,25.03
2019-06-15T20:41:56.469Z,24.96
2019-06-15T20:44:26.170Z,24.93
2019-06-15T20:46:57.102Z,24.86
2019-06-15T20:49:26.608Z,24.79
2019-06-15T20:51:56.193Z,24.71
2019-06-15T20:54:25.693Z,24.64
2019-06-15T20:56:56.970Z,24.57
2019-06-15T20:59:26.368Z,24.49
2019-06-15T21:01:56.284Z,24.44
2019-06-15T21:04:26.688Z,24.40
2019-06-15T21:07:03.014Z,24.41
2019-06-15T21:09:36.407Z,24.40
2019-06-15T21:12:07.674Z,24.39
2019-06-15T21:14:37.026Z,24.39
2019-06-15T21:17:09.283Z,24.41
2019-06-15T21:19:38.401Z,24.41
2019-06-15T21:22:07.623Z,24.43
2019-06-15T21:24:37.444Z,24.41
2019-06-15T21:27:06.692Z,24.41
2019-06-15T21:29:36.955Z,24.40
2019-06-15T21:32:06.361Z,24.40
2019-06-15T21:34:36.219Z,24.38
2019-06-15T21:37:06.530Z,24.39
2019-06-15T21:39:36.594Z,24.40
2019-06-15T21:42:08.063Z,24.42
2019-06-15T21:44:37.478Z,24.43
2019-06-15T21:47:07.071Z,24.45
2019-06-15T21:49:36.410Z,24.46
2019-06-15T21:52:07.228Z,24.46
2019-06-15T21:54:36.535Z,24.47
2019-06-15T21:57:07.019Z,24.47
2019-06-15T21:59:37.119Z,24.48
2019-06-15T22:02:07.138Z,24.51
2019-06-15T22:04:36.934Z,24.53
2019-06-15T22:07:06.623Z,24.54
2019-06-15T22:09:36.527Z,24.53
2019-06-15T22:12:06.905Z,24.50
2019-06-15T22:14:36.374Z,24.47
2019-06-15T22:17:06.737Z,24.44
2019-06-15T22:19:36.930Z,24.43
2019-06-15T22:22:07.450Z,24.41
2019-06-15T22:24:38.973Z,24.43
2019-06-15T22:27:08.137Z,24.44
2019-06-15T22:29:37.368Z,24.46
